Time;durP1;ratioP1;P1;durP2;ratioP2;P2;SDS_P1;SDS_P2;PMS_P1;PMS_P2;Temp;Humidity;BMP_temperature;BMP_pressure;BME280_temperature;BME280_humidity;BME280_pressure;Samples;Min_cycle;Max_cycle;Signal;HPM_P1;HPM_P2
2021/06/23 00:03:07;;;;;;;4.10;1.80;;;20.30;69.30;;;;;;10449708;28;20278;-31
2021/06/23 00:08:30;;;;;;;2.90;1.80;;;20.30;69.60;;;;;;10449753;28;20229;-28
2021/06/23 00:13:52;;;;;;;2.93;1.57;;;20.30;69.50;;;;;;10451814;28;20197;-33
2021/06/23 00:19:14;;;;;;;2.63;1.97;;;20.30;69.50;;;;;;10450784;28;20224;-30
2021/06/23 00:24:38;;;;;;;2.60;1.77;;;20.30;69.40;;;;;;10468534;28;20692;-30
2021/06/23 00:30:00;;;;;;;3.07;1.60;;;20.30;69.30;;;;;;10453283;28;20622;-32
2021/06/23 00:35:22;;;;;;;3.03;1.83;;;20.30;69.40;;;;;;10490061;28;20200;-32
2021/06/23 00:40:46;;;;;;;4.57;1.87;;;20.30;69.40;;;;;;10458990;28;20221;-31
2021/06/23 00:46:08;;;;;;;2.37;1.77;;;20.30;69.50;;;;;;10457541;28;20303;-30
2021/06/23 00:51:31;;;;;;;3.40;2.07;;;20.30;69.20;;;;;;10464015;28;20197;-29
2021/06/23 00:56:57;;;;;;;3.60;1.80;;;20.20;69.30;;;;;;10457973;28;20213;-30
2021/06/23 01:02:20;;;;;;;2.67;1.73;;;20.30;69.40;;;;;;10455739;28;20212;-27
2021/06/23 01:07:43;;;;;;;4.33;2.20;;;20.30;69.30;;;;;;10456451;28;20228;-29
2021/06/23 01:13:33;;;;;;;3.13;1.83;;;20.20;69.40;;;;;;10490224;28;20263;-29
2021/06/23 01:18:56;;;;;;;3.70;2.10;;;20.30;69.30;;;;;;10479519;28;20592;-30
2021/06/23 01:24:20;;;;;;;3.37;1.63;;;20.30;69.30;;;;;;10490356;28;20220;-28
2021/06/23 01:29:42;;;;;;;2.57;1.83;;;20.30;69.40;;;;;;10475719;28;20219;-29
2021/06/23 01:35:05;;;;;;;2.40;1.90;;;20.30;69.30;;;;;;10480360;28;20193;-30
2021/06/23 01:40:28;;;;;;;4.23;2.10;;;20.20;69.40;;;;;;10458129;28;20224;-30
2021/06/23 01:45:51;;;;;;;2.50;1.80;;;20.20;68.90;;;;;;10496621;28;20227;-28
2021/06/23 01:51:13;;;;;;;2.27;1.53;;;20.20;69.00;;;;;;10494642;28;20192;-29
2021/06/23 01:56:36;;;;;;;2.47;1.83;;;20.30;69.60;;;;;;10495689;28;20208;-30
2021/06/23 02:02:04;;;;;;;4.10;1.90;;;20.20;69.10;;;;;;10494255;28;20192;-29
2021/06/23 02:07:58;;;;;;;2.50;1.87;;;20.20;69.00;;;;;;10495612;28;20227;-29
2021/06/23 02:13:57;;;;;;;3.63;2.10;;;20.20;68.90;;;;;;10487031;28;20306;-29
2021/06/23 02:19:20;;;;;;;2.93;1.80;;;20.20;68.80;;;;;;10492074;28;20224;-27
2021/06/23 02:24:43;;;;;;;3.03;1.97;;;20.20;69.00;;;;;;10453449;28;20220;-31
2021/06/23 02:30:07;;;;;;;4.20;1.80;;;20.20;68.90;;;;;;10460629;28;20213;-29
2021/06/23 02:35:31;;;;;;;1.97;1.73;;;20.20;68.80;;;;;;10471954;28;20687;-29
2021/06/23 02:40:54;;;;;;;2.73;1.97;;;20.20;68.70;;;;;;10452970;28;20192;-28
2021/06/23 02:46:18;;;;;;;2.57;1.83;;;20.20;68.70;;;;;;10454660;28;20224;-30
2021/06/23 02:51:42;;;;;;;2.23;1.77;;;20.20;68.60;;;;;;10454429;28;20576;-30
2021/06/23 02:57:05;;;;;;;2.97;1.90;;;20.20;68.80;;;;;;10485657;28;20220;-32
2021/06/23 03:02:27;;;;;;;2.73;1.70;;;20.20;68.40;;;;;;10453781;28;20228;-33
2021/06/23 03:07:51;;;;;;;2.67;1.80;;;20.20;68.60;;;;;;10452072;28;20231;-28
2021/06/23 03:13:13;;;;;;;5.00;2.30;;;20.20;68.50;;;;;;10453150;28;20734;-29
2021/06/23 03:18:35;;;;;;;2.37;1.60;;;20.20;68.60;;;;;;10456485;28;20223;-31
2021/06/23 03:23:59;;;;;;;2.97;1.67;;;20.20;68.40;;;;;;10459893;28;20221;-30
2021/06/23 03:29:27;;;;;;;3.20;2.07;;;20.20;68.30;;;;;;10451884;28;20722;-34
2021/06/23 03:34:50;;;;;;;2.10;1.70;;;20.20;68.20;;;;;;10452643;28;20193;-29
2021/06/23 03:40:13;;;;;;;2.10;1.77;;;20.20;68.00;;;;;;10453314;28;20584;-30
2021/06/23 03:45:36;;;;;;;2.37;1.63;;;20.20;68.20;;;;;;10458694;28;20718;-36
2021/06/23 03:50:58;;;;;;;2.70;1.60;;;20.10;68.20;;;;;;10452153;28;20205;-31
2021/06/23 03:56:21;;;;;;;2.30;2.00;;;20.20;68.20;;;;;;10468153;28;20583;-31
2021/06/23 04:01:43;;;;;;;2.70;1.90;;;20.20;68.30;;;;;;10490394;28;20197;-31
2021/06/23 04:07:05;;;;;;;2.33;1.63;;;20.10;68.50;;;;;;10492283;28;20696;-30
2021/06/23 04:12:29;;;;;;;3.33;1.83;;;20.10;68.80;;;;;;10540144;22;20235;-27
2021/06/23 04:17:51;;;;;;;3.23;1.90;;;20.10;68.70;;;;;;10522829;28;20199;-27
2021/06/23 04:23:13;;;;;;;2.23;1.83;;;20.10;69.10;;;;;;10481404;28;20208;-29
2021/06/23 04:28:37;;;;;;;3.77;1.83;;;20.10;68.80;;;;;;10474238;28;20228;-27
2021/06/23 04:33:59;;;;;;;2.07;1.60;;;20.10;68.90;;;;;;10479519;28;20193;-28
2021/06/23 04:39:21;;;;;;;4.90;1.90;;;20.10;68.80;;;;;;10470217;28;20221;-28
2021/06/23 04:44:45;;;;;;;3.17;1.90;;;20.20;69.20;;;;;;10497772;28;20220;-29
2021/06/23 04:50:09;;;;;;;3.83;1.80;;;20.10;69.30;;;;;;10491110;28;20228;-27
2021/06/23 04:55:31;;;;;;;3.43;1.60;;;20.10;69.30;;;;;;10467381;28;20568;-28
2021/06/23 05:00:55;;;;;;;1.83;1.47;;;20.10;69.40;;;;;;10497373;28;20219;-27
2021/06/23 05:06:17;;;;;;;3.87;1.87;;;20.10;69.30;;;;;;10475148;28;20224;-29
2021/06/23 05:11:39;;;;;;;3.20;1.60;;;20.10;69.40;;;;;;10454958;28;20232;-29
2021/06/23 05:17:03;;;;;;;4.33;1.90;;;20.10;69.50;;;;;;10455595;28;20185;-28
2021/06/23 05:22:25;;;;;;;2.53;1.43;;;20.10;69.60;;;;;;10479299;28;20702;-28
2021/06/23 05:27:47;;;;;;;1.63;1.53;;;20.10;69.60;;;;;;10462774;28;20201;-28
2021/06/23 05:33:11;;;;;;;2.07;1.43;;;20.10;69.70;;;;;;10478149;28;20216;-27
2021/06/23 05:38:33;;;;;;;3.70;1.53;;;20.10;69.60;;;;;;10497458;28;20204;-29
2021/06/23 05:43:55;;;;;;;3.47;1.70;;;20.10;69.70;;;;;;10488320;28;20553;-29
2021/06/23 05:49:18;;;;;;;2.33;1.30;;;20.10;70.00;;;;;;10454197;28;20225;-28
2021/06/23 05:54:40;;;;;;;2.10;1.33;;;20.10;69.60;;;;;;10473054;28;20942;-27
2021/06/23 06:00:03;;;;;;;6.13;1.53;;;20.20;69.90;;;;;;10472819;28;20228;-29
2021/06/23 06:05:26;;;;;;;7.13;1.60;;;19.90;67.40;;;;;;10468854;28;20220;-29
2021/06/23 06:10:48;;;;;;;6.20;1.93;;;19.70;67.50;;;;;;10471053;28;20225;-29
2021/06/23 06:16:10;;;;;;;4.60;1.40;;;19.60;68.40;;;;;;10482059;28;20198;-28
2021/06/23 06:21:34;;;;;;;4.97;1.40;;;19.60;68.00;;;;;;10473657;28;20377;-28
2021/06/23 06:26:56;;;;;;;3.40;1.47;;;19.60;67.70;;;;;;10486670;28;20695;-26
2021/06/23 06:32:18;;;;;;;5.47;1.40;;;19.60;67.70;;;;;;10453518;28;20592;-28
2021/06/23 06:37:42;;;;;;;3.40;1.10;;;19.60;67.60;;;;;;10491296;28;20193;-28
2021/06/23 06:43:04;;;;;;;5.33;1.50;;;19.50;67.80;;;;;;10451823;28;20223;-29
2021/06/23 06:48:27;;;;;;;5.00;1.40;;;19.50;68.00;;;;;;10452494;28;20205;-29
2021/06/23 06:53:50;;;;;;;5.53;1.53;;;19.40;68.40;;;;;;10469427;28;20197;-29
2021/06/23 06:59:12;;;;;;;4.67;1.40;;;19.40;68.30;;;;;;10469069;28;20223;-28
2021/06/23 07:04:35;;;;;;;4.67;1.50;;;19.40;68.50;;;;;;10451451;28;20217;-27
2021/06/23 07:09:58;;;;;;;6.90;1.90;;;19.50;68.10;;;;;;10450896;28;20225;-28
2021/06/23 07:15:21;;;;;;;5.23;1.60;;;19.40;68.00;;;;;;10451340;28;20204;-29
2021/06/23 07:20:43;;;;;;;4.77;1.47;;;19.40;68.40;;;;;;10462492;28;20301;-28
2021/06/23 07:26:06;;;;;;;4.20;1.30;;;19.40;68.10;;;;;;10491873;28;20216;-28
2021/06/23 07:31:38;;;;;;;5.37;1.70;;;19.40;68.50;;;;;;10458590;28;20232;-28
2021/06/23 07:37:04;;;;;;;5.03;1.30;;;19.40;68.00;;;;;;10471961;28;20189;-28
2021/06/23 07:42:27;;;;;;;4.40;1.47;;;19.40;67.70;;;;;;10460476;28;20216;-29
2021/06/23 07:47:49;;;;;;;4.03;1.03;;;19.40;67.70;;;;;;10469672;28;20213;-28
2021/06/23 07:53:19;;;;;;;4.30;1.33;;;19.40;68.30;;;;;;10470085;28;20611;-28
2021/06/23 08:10:03;;;;;;;6.83;2.03;;;19.50;68.50;;;;;;10458155;28;20217;-29
2021/06/23 08:15:29;;;;;;;4.57;1.27;;;19.50;68.50;;;;;;10473389;28;20192;-29
2021/06/23 08:20:52;;;;;;;6.30;1.10;;;19.50;66.90;;;;;;10490744;28;20254;-28
2021/06/23 08:26:14;;;;;;;4.27;1.50;;;19.60;67.40;;;;;;10490860;28;20216;-29
2021/06/23 08:31:37;;;;;;;4.50;1.27;;;19.60;67.90;;;;;;10499744;28;20229;-28
2021/06/23 08:37:00;;;;;;;4.50;1.17;;;19.70;68.50;;;;;;10492993;28;20207;-29
2021/06/23 08:42:22;;;;;;;5.30;1.40;;;19.80;69.10;;;;;;10493768;28;20223;-28
2021/06/23 08:47:47;;;;;;;6.47;1.60;;;19.80;68.40;;;;;;10497272;28;20212;-28
2021/06/23 08:53:09;;;;;;;5.57;1.47;;;19.90;67.50;;;;;;10497409;28;20216;-28
2021/06/23 08:58:32;;;;;;;7.13;1.57;;;19.80;66.90;;;;;;10478341;28;20200;-28
2021/06/23 09:04:04;;;;;;;4.90;1.70;;;19.80;66.60;;;;;;10496809;28;20220;-29
2021/06/23 09:09:28;;;;;;;4.73;1.63;;;19.80;66.30;;;;;;10498142;28;20522;-28
2021/06/23 09:14:50;;;;;;;7.30;2.10;;;19.80;65.20;;;;;;10490070;28;20185;-28
2021/06/23 09:20:14;;;;;;;4.10;1.30;;;19.90;65.60;;;;;;10464722;28;20710;-29
2021/06/23 09:25:38;;;;;;;5.23;1.83;;;19.80;64.10;;;;;;10489371;28;20585;-30
2021/06/23 09:31:01;;;;;;;5.50;1.70;;;19.80;64.50;;;;;;10494881;28;20216;-28
2021/06/23 09:36:29;;;;;;;5.33;1.73;;;19.90;64.40;;;;;;10486630;28;20276;-29
2021/06/23 09:41:53;;;;;;;9.50;1.70;;;19.90;66.30;;;;;;10485643;28;20223;-28
2021/06/23 09:47:15;;;;;;;5.83;2.07;;;20.00;66.00;;;;;;10467963;28;20221;-28
2021/06/23 09:52:53;;;;;;;7.60;1.87;;;19.90;65.80;;;;;;10487186;28;20224;-28
2021/06/23 09:58:19;;;;;;;4.63;1.73;;;19.90;65.20;;;;;;10487375;28;20184;-27
2021/06/23 10:04:00;;;;;;;5.23;1.50;;;19.90;65.00;;;;;;10480275;28;20219;-28
2021/06/23 10:09:25;;;;;;;4.97;1.80;;;20.00;65.90;;;;;;10485059;22;20268;-31
2021/06/23 10:14:47;;;;;;;5.37;1.77;;;20.00;66.00;;;;;;10515937;28;20194;-30
2021/06/23 10:20:10;;;;;;;4.47;1.50;;;20.10;65.50;;;;;;10531597;28;20300;-29
2021/06/23 10:25:34;;;;;;;4.07;1.43;;;20.10;65.90;;;;;;10534865;28;20214;-30
2021/06/23 10:30:58;;;;;;;4.87;1.50;;;20.10;65.90;;;;;;10557097;28;20724;-30
2021/06/23 10:36:22;;;;;;;6.23;1.80;;;20.10;65.70;;;;;;10578070;28;20183;-28
2021/06/23 10:41:49;;;;;;;2.63;1.47;;;20.10;66.20;;;;;;10502046;28;20223;-31
2021/06/23 10:47:29;;;;;;;3.33;1.50;;;20.10;65.90;;;;;;10502632;28;20586;-31
2021/06/23 10:52:51;;;;;;;4.40;1.53;;;20.10;65.50;;;;;;10534656;28;20566;-33
2021/06/23 10:58:14;;;;;;;4.30;1.43;;;20.20;65.80;;;;;;10528622;28;20213;-30
2021/06/23 11:04:02;;;;;;;9.27;1.60;;;20.20;66.00;;;;;;10534347;28;20632;-31
2021/06/23 11:09:26;;;;;;;4.33;1.50;;;20.30;65.70;;;;;;10528654;28;20233;-31
2021/06/23 11:15:15;;;;;;;12.97;1.87;;;20.30;65.70;;;;;;10534847;28;20750;-31
2021/06/23 11:20:42;;;;;;;4.80;1.77;;;20.30;65.30;;;;;;10530216;28;20218;-30
2021/06/23 11:26:04;;;;;;;6.30;1.67;;;20.40;64.60;;;;;;10534128;28;20211;-31
2021/06/23 11:31:43;;;;;;;4.43;1.50;;;20.40;65.50;;;;;;10532268;28;20226;-27
2021/06/23 11:37:06;;;;;;;3.97;1.53;;;20.50;65.80;;;;;;10559719;28;20183;-29
2021/06/23 11:42:28;;;;;;;4.57;1.53;;;20.50;66.30;;;;;;10553481;28;20223;-32
2021/06/23 11:47:52;;;;;;;3.70;1.47;;;20.50;66.40;;;;;;10531581;28;20226;-32
2021/06/23 11:53:15;;;;;;;3.33;1.40;;;20.50;66.70;;;;;;10553803;28;20215;-32
2021/06/23 11:58:37;;;;;;;3.70;1.33;;;20.40;67.20;;;;;;10530514;28;20196;-29
2021/06/23 12:04:02;;;;;;;4.30;1.23;;;20.40;66.70;;;;;;10516359;28;20281;-32
2021/06/23 12:09:24;;;;;;;3.13;1.30;;;20.40;66.80;;;;;;10532654;28;20226;-30
2021/06/23 12:14:46;;;;;;;3.43;1.40;;;20.40;66.40;;;;;;10533645;28;20217;-30
2021/06/23 12:20:11;;;;;;;4.40;1.40;;;20.30;66.60;;;;;;10529465;28;20230;-32
2021/06/23 12:25:36;;;;;;;3.83;1.20;;;20.30;66.80;;;;;;10532893;28;20238;-30
2021/06/23 12:30:58;;;;;;;4.53;1.63;;;20.30;66.60;;;;;;10531601;28;20219;-32
2021/06/23 12:36:21;;;;;;;2.63;1.10;;;20.30;66.40;;;;;;10532899;28;20195;-34
2021/06/23 12:41:43;;;;;;;3.43;1.20;;;20.30;66.70;;;;;;10541313;28;20606;-31
2021/06/23 12:47:06;;;;;;;3.13;1.20;;;20.30;66.70;;;;;;10539939;28;20219;-33
2021/06/23 12:52:29;;;;;;;3.13;1.27;;;20.30;65.90;;;;;;10539370;28;20212;-28
2021/06/23 12:57:51;;;;;;;3.13;1.37;;;20.30;66.20;;;;;;10514703;28;20201;-30
2021/06/23 13:03:13;;;;;;;2.83;1.33;;;20.30;66.00;;;;;;10513817;28;20211;-30
2021/06/23 13:08:37;;;;;;;2.83;1.33;;;20.30;66.40;;;;;;10542433;28;20218;-32
2021/06/23 13:13:59;;;;;;;2.63;1.00;;;20.20;66.40;;;;;;10581896;28;20673;-30
2021/06/23 13:19:21;;;;;;;3.13;1.40;;;20.20;66.30;;;;;;10566858;28;20226;-32
2021/06/23 13:24:45;;;;;;;2.23;1.23;;;20.20;66.70;;;;;;10560486;28;20212;-32
2021/06/23 13:30:08;;;;;;;2.50;0.93;;;20.30;66.90;;;;;;10538823;28;20211;-29
2021/06/23 13:35:31;;;;;;;1.83;1.00;;;20.30;67.00;;;;;;10539307;28;20198;-33
2021/06/23 13:40:55;;;;;;;3.80;1.47;;;20.30;67.00;;;;;;10535303;28;20216;-30
2021/06/23 13:46:17;;;;;;;3.13;1.47;;;20.20;67.20;;;;;;10524345;28;20610;-31
2021/06/23 13:51:40;;;;;;;1.37;1.20;;;20.20;67.10;;;;;;10537121;28;20773;-30
2021/06/23 13:57:04;;;;;;;4.00;1.47;;;20.30;67.40;;;;;;10496325;28;20199;-28
2021/06/23 14:02:27;;;;;;;1.67;1.03;;;20.20;67.30;;;;;;10531921;28;20223;-32
2021/06/23 14:07:49;;;;;;;3.80;1.40;;;20.20;67.40;;;;;;10506107;28;20223;-30
2021/06/23 14:13:12;;;;;;;1.50;1.00;;;20.30;67.80;;;;;;10531783;28;20227;-30
2021/06/23 14:18:34;;;;;;;1.47;1.00;;;20.30;67.90;;;;;;10535734;28;20196;-29
2021/06/23 14:23:59;;;;;;;3.53;1.23;;;20.30;68.10;;;;;;10535887;28;20199;-29
2021/06/23 14:29:22;;;;;;;3.80;1.30;;;20.30;68.00;;;;;;10534276;28;20211;-29
2021/06/23 14:34:44;;;;;;;1.77;1.23;;;20.30;67.90;;;;;;10534312;28;20503;-30
2021/06/23 14:40:08;;;;;;;3.33;1.40;;;20.30;67.90;;;;;;10536326;28;20223;-30
2021/06/23 14:45:32;;;;;;;3.73;1.43;;;20.30;68.00;;;;;;10531521;28;20219;-31
2021/06/23 14:50:54;;;;;;;3.53;1.33;;;20.30;68.10;;;;;;10534828;28;20215;-32
2021/06/23 14:56:16;;;;;;;3.13;1.40;;;20.30;68.30;;;;;;10535521;28;20214;-30
2021/06/23 15:01:39;;;;;;;3.60;1.20;;;20.30;68.20;;;;;;10533672;28;20640;-29
2021/06/23 15:07:01;;;;;;;3.53;1.40;;;20.30;68.20;;;;;;10568778;28;20215;-28
2021/06/23 15:12:24;;;;;;;4.53;2.07;;;20.30;68.50;;;;;;10541350;28;20231;-33
2021/06/23 15:17:47;;;;;;;5.77;1.53;;;20.30;68.50;;;;;;10505417;28;20690;-31
2021/06/23 15:23:11;;;;;;;6.40;1.90;;;20.30;67.80;;;;;;10492480;28;20224;-32
2021/06/23 15:28:33;;;;;;;4.73;1.33;;;20.40;68.10;;;;;;10489565;28;20231;-30
2021/06/23 15:33:56;;;;;;;6.30;2.10;;;20.30;67.80;;;;;;10491374;28;20197;-36
2021/06/23 15:39:19;;;;;;;8.03;1.70;;;20.30;67.70;;;;;;10492480;28;20209;-34
2021/06/23 15:44:41;;;;;;;4.63;1.50;;;20.30;67.80;;;;;;10460314;28;20196;-29
2021/06/23 15:50:05;;;;;;;2.57;1.37;;;20.40;68.00;;;;;;10494819;28;20227;-33
2021/06/23 15:55:27;;;;;;;4.63;1.63;;;20.30;67.80;;;;;;10492200;28;20185;-32
2021/06/23 16:00:52;;;;;;;3.63;1.73;;;20.30;67.40;;;;;;10491188;28;20232;-31
2021/06/23 16:06:15;;;;;;;9.23;2.27;;;20.30;68.20;;;;;;10491012;28;20583;-30
2021/06/23 16:11:37;;;;;;;5.87;2.13;;;20.40;67.60;;;;;;10495388;23;20231;-28
2021/06/23 16:17:00;;;;;;;14.50;2.53;;;20.30;67.40;;;;;;10488791;28;20199;-30
2021/06/23 16:22:29;;;;;;;6.20;1.90;;;20.30;68.10;;;;;;10472882;28;20596;-30
2021/06/23 16:27:51;;;;;;;6.80;1.90;;;20.30;68.10;;;;;;10457426;28;20213;-29
2021/06/23 16:33:14;;;;;;;4.37;1.80;;;20.30;68.10;;;;;;10458051;28;20224;-30
2021/06/23 16:38:37;;;;;;;5.27;2.10;;;20.30;68.30;;;;;;10457211;28;20572;-28
2021/06/23 16:43:59;;;;;;;4.47;2.30;;;20.30;68.10;;;;;;10457037;28;20213;-28
2021/06/23 16:49:22;;;;;;;6.67;1.87;;;20.30;68.00;;;;;;10455488;28;20226;-28
2021/06/23 16:54:45;;;;;;;5.03;1.67;;;20.30;67.90;;;;;;10456917;28;20211;-29
2021/06/23 17:00:09;;;;;;;4.20;2.00;;;20.30;68.10;;;;;;10456814;28;20729;-28
2021/06/23 17:05:31;;;;;;;5.25;2.10;;;20.30;68.70;;;;;;10451947;28;20432;-28
2021/06/23 17:10:55;;;;;;;7.87;1.83;;;20.60;67.90;;;;;;10447422;28;20302;-29
2021/06/23 17:16:18;;;;;;;6.50;2.20;;;20.50;67.80;;;;;;10454147;28;20189;-28
2021/06/23 17:21:41;;;;;;;8.67;2.30;;;20.40;68.00;;;;;;10455006;28;20318;-29
2021/06/23 17:27:05;;;;;;;7.20;2.60;;;20.40;68.00;;;;;;10457125;28;20730;-29
2021/06/23 17:32:27;;;;;;;5.53;2.33;;;20.30;67.10;;;;;;10456067;28;20212;-28
2021/06/23 17:37:49;;;;;;;4.97;2.17;;;20.30;67.70;;;;;;10451499;28;20648;-27
2021/06/23 17:43:13;;;;;;;5.73;1.80;;;20.30;67.80;;;;;;10411870;28;20222;-27
2021/06/23 17:48:38;;;;;;;2.97;1.40;;;20.30;68.30;;;;;;10416248;28;20222;-28
2021/06/23 17:54:00;;;;;;;5.17;1.60;;;20.30;68.70;;;;;;10453923;28;20225;-27
2021/06/23 17:59:23;;;;;;;4.00;1.90;;;20.30;68.60;;;;;;10453526;28;20193;-27
2021/06/23 18:04:45;;;;;;;5.40;2.07;;;20.30;68.90;;;;;;10452546;28;20672;-31
2021/06/23 18:10:08;;;;;;;5.00;1.77;;;20.30;69.10;;;;;;10449202;28;20240;-28
2021/06/23 18:15:32;;;;;;;6.27;2.20;;;20.30;69.30;;;;;;10444703;28;20660;-29
2021/06/23 18:20:54;;;;;;;3.40;1.80;;;20.30;70.00;;;;;;10479248;28;20712;-27
2021/06/23 18:26:16;;;;;;;3.93;1.83;;;20.20;69.50;;;;;;10445248;28;20221;-27
2021/06/23 18:31:39;;;;;;;4.80;2.00;;;20.30;69.80;;;;;;10450230;28;20227;-27
2021/06/23 18:37:02;;;;;;;4.50;1.60;;;20.30;70.00;;;;;;10450791;28;20189;-31
2021/06/23 18:42:24;;;;;;;4.27;1.53;;;20.30;70.10;;;;;;10452105;28;20577;-30
2021/06/23 18:47:47;;;;;;;3.53;1.80;;;20.30;70.20;;;;;;10449570;28;20223;-31
2021/06/23 18:53:09;;;;;;;4.17;1.80;;;20.30;70.30;;;;;;10452688;28;20215;-27
2021/06/23 18:58:32;;;;;;;4.43;1.87;;;20.30;71.10;;;;;;10453215;28;20189;-28
2021/06/23 19:03:57;;;;;;;3.53;1.83;;;20.30;70.70;;;;;;10452002;28;20221;-29
2021/06/23 19:09:20;;;;;;;6.23;1.97;;;20.30;70.70;;;;;;10447105;28;20251;-28
2021/06/23 19:14:42;;;;;;;4.20;1.60;;;20.30;70.60;;;;;;10404139;28;20289;-29
2021/06/23 19:20:07;;;;;;;2.93;1.30;;;20.30;70.70;;;;;;10411605;28;20281;-30
2021/06/23 19:25:30;;;;;;;5.93;1.53;;;20.30;70.70;;;;;;10403532;28;20224;-28
2021/06/23 19:30:52;;;;;;;4.33;1.70;;;20.30;70.80;;;;;;10404766;28;20226;-30
2021/06/23 19:36:15;;;;;;;3.57;1.73;;;20.30;70.80;;;;;;10363662;28;20194;-31
2021/06/23 19:41:37;;;;;;;4.87;1.50;;;20.30;70.90;;;;;;10363622;28;20230;-30
2021/06/23 19:46:59;;;;;;;4.07;1.70;;;20.30;71.00;;;;;;10414462;28;20301;-30
2021/06/23 19:52:23;;;;;;;4.27;1.57;;;20.30;70.90;;;;;;10412446;28;20227;-28
2021/06/23 19:57:46;;;;;;;3.13;1.47;;;20.30;71.00;;;;;;10372222;28;20187;-28
2021/06/23 20:03:09;;;;;;;4.10;1.53;;;20.30;71.10;;;;;;10370796;28;20284;-31
2021/06/23 20:08:32;;;;;;;1.90;1.40;;;20.30;71.00;;;;;;10379899;28;20221;-30
2021/06/23 20:13:54;;;;;;;3.17;1.83;;;20.30;70.90;;;;;;10450638;28;20228;-30
2021/06/23 20:19:16;;;;;;;4.07;1.40;;;20.30;70.90;;;;;;10471037;28;20197;-28
2021/06/23 20:24:40;;;;;;;4.73;1.60;;;20.20;70.80;;;;;;10455272;28;20205;-29
2021/06/23 20:30:04;;;;;;;2.63;1.50;;;20.30;70.90;;;;;;10451595;28;20217;-30
2021/06/23 20:35:26;;;;;;;4.13;1.70;;;20.20;71.00;;;;;;10452722;28;20204;-30
2021/06/23 20:40:50;;;;;;;4.23;1.60;;;20.20;71.60;;;;;;10450959;28;20219;-29
2021/06/23 20:46:12;;;;;;;2.27;1.27;;;20.20;71.00;;;;;;10450496;28;20558;-29
2021/06/23 20:51:34;;;;;;;2.30;1.40;;;20.20;71.00;;;;;;10450813;28;20228;-27
2021/06/23 20:56:59;;;;;;;2.80;1.70;;;20.20;71.20;;;;;;10449518;28;20629;-28
2021/06/23 21:02:22;;;;;;;2.40;1.57;;;20.20;71.20;;;;;;10450549;28;20228;-28
2021/06/23 21:07:51;;;;;;;1.93;1.37;;;20.20;71.10;;;;;;10450946;28;20224;-29
2021/06/23 21:13:18;;;;;;;2.37;1.60;;;20.20;71.10;;;;;;10476181;28;20588;-31
2021/06/23 21:18:41;;;;;;;3.73;2.00;;;20.20;71.10;;;;;;10493611;28;20203;-29
2021/06/23 21:24:03;;;;;;;1.93;1.70;;;20.20;71.10;;;;;;10459004;28;20588;-28
2021/06/23 21:29:38;;;;;;;3.07;1.60;;;20.20;71.20;;;;;;10455457;28;20300;-28
2021/06/23 21:35:03;;;;;;;2.40;1.37;;;20.20;71.00;;;;;;10456062;28;20196;-27
2021/06/23 21:40:25;;;;;;;2.27;1.53;;;20.20;71.10;;;;;;10452619;28;20217;-28
2021/06/23 21:45:49;;;;;;;2.43;1.30;;;20.20;71.10;;;;;;10456996;28;20200;-29
2021/06/23 21:51:12;;;;;;;2.80;1.23;;;20.20;71.10;;;;;;10457603;28;20220;-28
2021/06/23 21:56:35;;;;;;;3.63;1.67;;;20.20;71.20;;;;;;10456514;28;20268;-28
2021/06/23 22:02:06;;;;;;;1.60;1.27;;;20.20;71.20;;;;;;10453218;28;20225;-28
2021/06/23 22:07:30;;;;;;;4.43;1.87;;;20.20;71.10;;;;;;10449525;28;20205;-28
2021/06/23 22:12:53;;;;;;;1.80;1.57;;;20.10;71.20;;;;;;10523774;23;20226;-27
2021/06/23 22:18:17;;;;;;;2.40;1.50;;;20.10;71.10;;;;;;10495814;28;20192;-27
2021/06/23 22:23:39;;;;;;;2.53;1.60;;;20.10;71.10;;;;;;10543242;28;20253;-26
2021/06/23 22:29:02;;;;;;;4.30;1.40;;;20.10;71.20;;;;;;10536258;28;20219;-27
2021/06/23 22:34:25;;;;;;;2.90;1.70;;;20.10;71.30;;;;;;10567071;28;20685;-27
2021/06/23 22:39:51;;;;;;;3.30;1.80;;;20.10;71.30;;;;;;10579034;28;20193;-27
2021/06/23 22:45:14;;;;;;;1.47;1.30;;;20.10;71.20;;;;;;10569994;28;20207;-27
2021/06/23 22:50:46;;;;;;;2.43;1.43;;;20.10;71.40;;;;;;10576807;28;20234;-27
2021/06/23 22:56:11;;;;;;;3.33;1.57;;;20.10;71.20;;;;;;10553479;28;20615;-27
2021/06/23 23:01:34;;;;;;;2.23;1.53;;;20.10;71.30;;;;;;10535927;28;20219;-26
2021/06/23 23:07:00;;;;;;;2.27;1.70;;;20.10;71.30;;;;;;10565590;28;20219;-27
2021/06/23 23:12:22;;;;;;;2.03;1.60;;;20.10;71.20;;;;;;10577939;28;20226;-27
2021/06/23 23:17:44;;;;;;;3.00;1.70;;;20.10;71.30;;;;;;10577658;28;20191;-27
2021/06/23 23:23:07;;;;;;;2.70;1.60;;;20.10;71.30;;;;;;10545128;28;20222;-27
2021/06/23 23:28:29;;;;;;;2.97;1.40;;;20.10;71.30;;;;;;10535350;28;20215;-26
2021/06/23 23:33:51;;;;;;;2.37;1.53;;;20.10;71.30;;;;;;10533799;28;20219;-27
2021/06/23 23:39:15;;;;;;;2.93;1.53;;;20.10;71.30;;;;;;10533841;28;20195;-27
2021/06/23 23:44:37;;;;;;;2.63;1.70;;;20.10;71.30;;;;;;10533168;28;20227;-26
2021/06/23 23:49:59;;;;;;;1.80;1.53;;;20.10;71.30;;;;;;10564897;28;20223;-26
2021/06/23 23:55:23;;;;;;;2.40;1.73;;;20.10;71.20;;;;;;10576147;28;20187;-27
